createdAt,value
2019-03-30T00:01:49.370Z,39.37
2019-03-30T00:04:19.598Z,38.20
2019-03-30T00:06:49.918Z,32.50
2019-03-30T00:09:20.147Z,31.67
2019-03-30T00:11:50.362Z,30.80
2019-03-30T00:14:20.595Z,35.33
2019-03-30T00:16:50.838Z,34.20
2019-03-30T00:19:34.144Z,35.77
2019-03-30T00:21:53.027Z,42.20
2019-03-30T00:24:23.276Z,36.20
2019-03-30T00:26:53.542Z,41.83
2019-03-30T00:29:23.830Z,37.27
2019-03-30T00:31:54.086Z,38.10
2019-03-30T00:34:24.313Z,34.10
2019-03-30T00:36:54.573Z,34.63
2019-03-30T00:39:24.828Z,32.97
2019-03-30T00:41:55.089Z,33.17
2019-03-30T00:44:25.294Z,26.80
2019-03-30T00:46:55.520Z,27.00
2019-03-30T00:49:25.740Z,29.00
2019-03-30T00:51:55.987Z,27.47
2019-03-30T00:54:26.262Z,26.13
2019-03-30T00:56:56.509Z,25.63
2019-03-30T00:59:26.696Z,27.90
2019-03-30T01:01:56.955Z,25.63
2019-03-30T01:04:27.217Z,25.73
2019-03-30T01:06:57.539Z,23.17
2019-03-30T01:09:27.725Z,28.53
2019-03-30T01:11:57.984Z,24.57
2019-03-30T01:14:28.230Z,24.83
2019-03-30T01:16:58.476Z,24.07
2019-03-30T01:19:28.676Z,23.63
2019-03-30T01:21:58.936Z,24.67
2019-03-30T01:24:29.214Z,26.27
2019-03-30T01:26:59.476Z,23.90
2019-03-30T01:29:29.674Z,26.13
2019-03-30T01:31:59.972Z,23.40
2019-03-30T01:34:30.161Z,22.33
2019-03-30T01:37:00.456Z,22.70
2019-03-30T01:39:30.717Z,23.63
2019-03-30T01:42:01.099Z,22.50
2019-03-30T01:44:31.382Z,22.00
2019-03-30T01:47:01.583Z,23.03
2019-03-30T01:49:31.884Z,20.20
2019-03-30T01:52:02.155Z,21.50
2019-03-30T01:54:32.432Z,22.07
2019-03-30T01:57:02.729Z,20.10
2019-03-30T01:59:32.947Z,19.83
2019-03-30T02:02:03.290Z,23.77
2019-03-30T02:04:33.497Z,22.17
2019-03-30T02:07:03.759Z,22.33
2019-03-30T02:09:33.988Z,20.53
2019-03-30T02:12:04.346Z,20.17
2019-03-30T02:14:34.546Z,21.00
2019-03-30T02:17:04.884Z,22.20
2019-03-30T02:19:35.217Z,21.13
2019-03-30T02:22:06.457Z,21.73
2019-03-30T02:24:36.705Z,21.90
2019-03-30T02:27:07.131Z,22.07
2019-03-30T02:29:37.286Z,19.50
2019-03-30T02:32:07.633Z,22.07
2019-03-30T02:34:37.883Z,22.83
2019-03-30T02:37:08.134Z,24.87
2019-03-30T02:39:38.357Z,22.80
2019-03-30T02:42:08.563Z,20.30
2019-03-30T02:44:38.841Z,22.63
2019-03-30T02:47:09.068Z,21.97
2019-03-30T02:49:39.291Z,21.37
2019-03-30T02:52:09.576Z,19.90
2019-03-30T02:54:39.777Z,24.13
2019-03-30T02:57:10.036Z,26.70
2019-03-30T02:59:40.342Z,22.77
2019-03-30T03:02:10.557Z,29.93
2019-03-30T03:04:40.847Z,22.63
2019-03-30T03:07:11.060Z,25.07
2019-03-30T03:09:41.274Z,23.30
2019-03-30T03:12:11.661Z,20.90
2019-03-30T03:14:41.847Z,22.73
2019-03-30T03:17:12.057Z,22.17
2019-03-30T03:19:42.282Z,22.80
2019-03-30T03:22:12.494Z,24.23
2019-03-30T03:24:42.752Z,21.20
2019-03-30T03:27:12.990Z,22.57
2019-03-30T03:29:43.973Z,21.57
2019-03-30T03:32:15.045Z,21.73
2019-03-30T03:34:45.326Z,24.00
2019-03-30T03:37:15.525Z,20.83
2019-03-30T03:39:45.744Z,21.37
2019-03-30T03:42:15.997Z,20.90
2019-03-30T03:44:46.244Z,20.60
2019-03-30T03:47:16.514Z,21.57
2019-03-30T03:49:46.719Z,20.13
2019-03-30T03:52:17.114Z,22.00
2019-03-30T03:54:47.538Z,22.67
2019-03-30T03:57:19.319Z,21.57
2019-03-30T03:59:52.081Z,20.70
2019-03-30T04:02:25.537Z,20.03
2019-03-30T04:04:58.136Z,20.13
2019-03-30T04:07:31.547Z,20.93
2019-03-30T04:10:03.829Z,21.60
2019-03-30T04:12:37.043Z,20.70
2019-03-30T04:15:07.735Z,21.13
2019-03-30T04:17:38.018Z,21.23
2019-03-30T04:20:09.017Z,21.17
2019-03-30T04:22:39.217Z,19.73
2019-03-30T04:25:09.563Z,19.07
2019-03-30T04:27:39.836Z,19.63
2019-03-30T04:30:10.157Z,18.73
2019-03-30T04:32:40.379Z,19.70
2019-03-30T04:35:10.662Z,18.87
2019-03-30T04:37:40.866Z,18.53
2019-03-30T04:40:11.089Z,21.00
2019-03-30T04:42:41.343Z,22.23
2019-03-30T04:45:13.055Z,23.60
2019-03-30T04:47:43.266Z,21.90
2019-03-30T04:50:13.506Z,20.13
2019-03-30T04:52:43.700Z,19.83
2019-03-30T04:55:13.940Z,20.30
2019-03-30T04:57:44.168Z,20.83
2019-03-30T05:00:14.590Z,21.93
2019-03-30T05:02:44.839Z,19.13
2019-03-30T05:05:15.135Z,21.70
2019-03-30T05:07:45.361Z,21.50
2019-03-30T05:10:15.581Z,19.20
2019-03-30T05:12:45.868Z,21.87
2019-03-30T05:15:17.664Z,19.57
2019-03-30T05:17:48.289Z,20.83
2019-03-30T05:20:18.928Z,21.17
2019-03-30T05:22:51.351Z,20.90
2019-03-30T05:25:21.046Z,20.50
2019-03-30T05:27:51.271Z,19.17
2019-03-30T05:30:21.548Z,17.23
2019-03-30T05:33:04.990Z,18.40
2019-03-30T05:35:23.655Z,17.90
2019-03-30T05:37:53.891Z,18.87
2019-03-30T05:40:24.195Z,18.03
2019-03-30T05:43:15.115Z,18.83
2019-03-30T05:45:45.343Z,20.57
2019-03-30T05:48:15.579Z,17.80
2019-03-30T05:50:45.773Z,17.17
2019-03-30T05:53:16.019Z,18.67
2019-03-30T05:55:46.245Z,19.20
2019-03-30T05:58:16.471Z,22.00
2019-03-30T06:00:46.724Z,23.90
2019-03-30T06:03:17.004Z,24.13
2019-03-30T06:05:47.202Z,23.23
2019-03-30T06:08:17.960Z,21.13
2019-03-30T06:10:48.168Z,21.63
2019-03-30T06:13:18.397Z,20.13
2019-03-30T06:15:48.655Z,19.13
2019-03-30T06:18:18.900Z,16.93
2019-03-30T06:20:49.116Z,24.17
2019-03-30T06:23:19.371Z,23.87
2019-03-30T06:25:49.623Z,20.63
2019-03-30T06:28:19.864Z,20.40
2019-03-30T06:30:50.110Z,25.77
2019-03-30T06:33:20.328Z,20.23
2019-03-30T06:35:50.566Z,22.43
2019-03-30T06:38:20.832Z,16.40
2019-03-30T06:40:51.312Z,18.33
2019-03-30T06:43:23.512Z,17.83
2019-03-30T06:45:53.751Z,20.17
2019-03-30T06:48:23.972Z,17.37
2019-03-30T06:50:54.229Z,16.57
2019-03-30T06:53:24.452Z,14.40
2019-03-30T06:55:54.672Z,17.90
2019-03-30T06:58:24.902Z,19.17
2019-03-30T07:00:56.324Z,16.80
2019-03-30T07:03:26.590Z,18.07
2019-03-30T07:05:57.063Z,17.03
2019-03-30T07:08:30.039Z,17.53
2019-03-30T07:11:03.223Z,19.80
2019-03-30T07:13:36.666Z,18.27
2019-03-30T07:16:07.767Z,18.70
2019-03-30T07:18:40.429Z,16.83
2019-03-30T07:21:10.699Z,18.93
2019-03-30T07:23:40.971Z,18.07
2019-03-30T07:26:11.634Z,14.03
2019-03-30T07:28:41.973Z,14.33
2019-03-30T07:31:12.188Z,14.30
2019-03-30T07:33:42.403Z,16.90
2019-03-30T07:36:12.635Z,15.10
2019-03-30T07:38:42.861Z,14.10
2019-03-30T07:41:13.128Z,14.20
2019-03-30T07:43:44.501Z,14.87
2019-03-30T07:46:14.799Z,13.73
2019-03-30T07:48:45.855Z,14.33
2019-03-30T07:51:16.074Z,16.03
2019-03-30T07:53:46.960Z,14.30
2019-03-30T07:56:17.231Z,14.03
2019-03-30T07:58:47.479Z,14.03
2019-03-30T08:01:17.727Z,14.50
2019-03-30T08:03:47.976Z,16.43
2019-03-30T08:06:18.237Z,18.47
2019-03-30T08:08:48.438Z,23.33
2019-03-30T08:11:18.692Z,21.47
2019-03-30T08:13:48.874Z,17.63
2019-03-30T08:16:19.100Z,16.83
2019-03-30T08:18:49.321Z,15.07
2019-03-30T08:21:19.556Z,14.23
2019-03-30T08:23:49.788Z,16.07
2019-03-30T08:26:19.999Z,18.27
2019-03-30T08:28:50.298Z,19.27
2019-03-30T08:31:20.507Z,21.63
2019-03-30T08:33:50.764Z,22.57
2019-03-30T08:36:21.004Z,25.57
2019-03-30T08:38:51.225Z,30.97
2019-03-30T08:41:21.491Z,25.03
2019-03-30T08:43:52.024Z,20.20
2019-03-30T08:46:22.397Z,20.90
2019-03-30T08:48:52.643Z,18.20
2019-03-30T08:51:22.874Z,17.83
2019-03-30T08:53:54.917Z,16.70
2019-03-30T08:56:27.893Z,18.90
2019-03-30T08:58:56.960Z,20.27
2019-03-30T09:01:27.240Z,18.50
2019-03-30T09:03:58.351Z,17.27
2019-03-30T09:06:28.603Z,16.07
2019-03-30T09:08:58.828Z,16.80
2019-03-30T09:11:29.084Z,21.63
2019-03-30T09:13:59.299Z,23.00
2019-03-30T09:16:29.530Z,22.30
2019-03-30T09:18:59.734Z,25.50
2019-03-30T09:21:29.992Z,21.50
2019-03-30T09:24:09.546Z,23.07
2019-03-30T09:26:33.533Z,19.53
2019-03-30T09:29:03.827Z,18.13
2019-03-30T09:31:34.059Z,17.43
2019-03-30T09:34:04.493Z,18.53
2019-03-30T09:36:34.846Z,19.17
2019-03-30T09:39:07.167Z,18.50
2019-03-30T09:41:37.365Z,19.53
2019-03-30T09:44:07.619Z,20.53
2019-03-30T09:46:37.853Z,20.63
2019-03-30T09:49:08.085Z,20.73
2019-03-30T09:51:38.325Z,24.13
2019-03-30T09:54:22.834Z,24.43
2019-03-30T09:56:40.637Z,23.17
2019-03-30T09:59:10.953Z,24.63
2019-03-30T10:01:43.691Z,29.07
2019-03-30T10:04:14.034Z,26.97
2019-03-30T10:06:47.330Z,26.70
2019-03-30T10:09:17.538Z,26.00
2019-03-30T10:11:47.737Z,23.60
2019-03-30T10:14:18.693Z,23.70
2019-03-30T10:16:48.925Z,27.00
2019-03-30T10:19:19.134Z,24.50
2019-03-30T10:21:49.357Z,24.97
2019-03-30T10:24:19.630Z,28.67
2019-03-30T10:26:49.836Z,25.40
2019-03-30T10:29:20.063Z,21.93
2019-03-30T10:31:50.322Z,23.57
2019-03-30T10:34:20.515Z,23.07
2019-03-30T10:36:50.792Z,20.37
2019-03-30T10:39:21.018Z,23.03
2019-03-30T10:41:51.289Z,21.83
2019-03-30T10:44:21.507Z,21.10
2019-03-30T10:46:51.732Z,19.63
2019-03-30T10:49:22.031Z,18.90
2019-03-30T10:51:54.365Z,19.00
2019-03-30T10:54:24.239Z,20.83
2019-03-30T10:56:54.477Z,19.80
2019-03-30T10:59:24.748Z,19.90
2019-03-30T11:01:55.007Z,18.90
2019-03-30T11:04:25.587Z,20.70
2019-03-30T11:06:56.246Z,19.00
2019-03-30T11:09:26.711Z,19.23
2019-03-30T11:11:56.999Z,18.03
2019-03-30T11:14:27.310Z,18.53
2019-03-30T11:16:59.469Z,19.87
2019-03-30T11:19:29.662Z,18.07
2019-03-30T11:22:03.317Z,20.43
2019-03-30T11:24:34.137Z,19.67
2019-03-30T11:27:04.393Z,20.67
2019-03-30T11:29:34.668Z,20.60
2019-03-30T11:32:04.923Z,25.40
2019-03-30T11:34:35.219Z,23.60
2019-03-30T11:37:05.590Z,22.00
2019-03-30T11:39:35.838Z,18.50
2019-03-30T11:42:06.118Z,28.13
2019-03-30T11:44:36.394Z,23.77
2019-03-30T11:47:07.673Z,27.03
2019-03-30T11:49:37.893Z,20.43
2019-03-30T11:52:08.152Z,22.07
2019-03-30T11:54:38.393Z,24.70
2019-03-30T11:57:10.032Z,19.57
2019-03-30T11:59:40.367Z,23.73
2019-03-30T12:02:10.639Z,21.07
2019-03-30T12:04:40.908Z,25.67
2019-03-30T12:07:11.219Z,23.17
2019-03-30T12:09:41.450Z,24.57
2019-03-30T12:12:11.667Z,19.87
2019-03-30T12:14:43.549Z,19.17
2019-03-30T12:17:13.817Z,20.87
2019-03-30T12:19:44.017Z,21.13
2019-03-30T12:22:14.235Z,20.37
2019-03-30T12:24:44.555Z,21.73
2019-03-30T12:27:14.847Z,26.13
2019-03-30T12:29:46.221Z,21.20
2019-03-30T12:32:16.527Z,21.87
2019-03-30T12:34:46.950Z,18.93
2019-03-30T12:37:17.195Z,19.90
2019-03-30T12:39:47.477Z,19.37
2019-03-30T12:42:17.682Z,20.13
2019-03-30T12:44:50.724Z,20.93
2019-03-30T12:47:20.984Z,21.47
2019-03-30T12:49:51.412Z,20.37
2019-03-30T12:52:21.687Z,20.53
2019-03-30T12:54:51.903Z,20.07
2019-03-30T12:57:22.139Z,19.53
2019-03-30T12:59:52.566Z,19.77
2019-03-30T13:02:25.551Z,22.23
2019-03-30T13:04:55.842Z,22.07
2019-03-30T13:07:26.140Z,21.07
2019-03-30T13:09:57.419Z,23.20
2019-03-30T13:12:27.649Z,23.33
2019-03-30T13:14:58.043Z,22.03
2019-03-30T13:17:30.711Z,21.00
2019-03-30T13:20:00.960Z,20.37
2019-03-30T13:22:31.223Z,23.00
2019-03-30T13:25:01.487Z,20.43
2019-03-30T13:27:32.076Z,19.80
2019-03-30T13:30:05.342Z,25.30
2019-03-30T13:32:36.708Z,22.27
2019-03-30T13:35:07.047Z,21.50
2019-03-30T13:37:37.775Z,21.33
2019-03-30T13:40:09.219Z,21.60
2019-03-30T13:42:39.429Z,25.93
2019-03-30T13:45:09.807Z,21.47
2019-03-30T13:47:40.047Z,23.80
2019-03-30T13:50:11.196Z,22.53
2019-03-30T13:52:42.687Z,23.13
2019-03-30T13:55:13.005Z,23.87
2019-03-30T13:57:43.290Z,19.87
2019-03-30T14:00:16.519Z,21.20
2019-03-30T14:02:47.358Z,20.80
2019-03-30T14:05:17.624Z,20.97
2019-03-30T14:07:47.844Z,21.60
2019-03-30T14:10:18.413Z,22.57
2019-03-30T14:12:48.672Z,23.10
2019-03-30T14:15:18.900Z,22.50
2019-03-30T14:17:49.196Z,21.13
2019-03-30T14:20:19.371Z,22.20
2019-03-30T14:22:49.670Z,22.63
2019-03-30T14:25:20.018Z,23.67
2019-03-30T14:27:51.250Z,22.70
2019-03-30T14:30:21.579Z,23.32
2019-03-30T14:32:51.888Z,22.93
2019-03-30T14:35:22.200Z,25.30
2019-03-30T14:37:53.097Z,22.43
2019-03-30T14:40:24.509Z,26.90
2019-03-30T14:42:54.766Z,24.53
2019-03-30T14:45:25.150Z,25.23
2019-03-30T14:47:57.869Z,25.03
2019-03-30T14:50:27.337Z,26.10
2019-03-30T14:52:57.912Z,27.40
2019-03-30T14:55:28.803Z,27.40
2019-03-30T14:57:59.073Z,24.23
2019-03-30T15:00:29.498Z,26.33
2019-03-30T15:03:00.202Z,26.17
2019-03-30T15:05:30.526Z,27.23
2019-03-30T15:08:00.819Z,26.30
2019-03-30T15:10:31.072Z,25.77
2019-03-30T15:13:01.326Z,26.93
2019-03-30T15:15:31.683Z,29.53
2019-03-30T15:18:01.980Z,27.00
2019-03-30T15:20:32.193Z,21.47
2019-03-30T15:23:02.491Z,22.50
2019-03-30T15:25:32.735Z,22.53
2019-03-30T15:28:02.978Z,20.73
2019-03-30T15:30:33.264Z,23.67
2019-03-30T15:33:03.688Z,21.70
2019-03-30T15:35:34.466Z,19.37
2019-03-30T15:38:04.757Z,20.10
2019-03-30T15:40:35.100Z,20.17
2019-03-30T15:43:05.443Z,20.50
2019-03-30T15:45:35.692Z,21.47
2019-03-30T15:48:06.269Z,20.57
2019-03-30T15:50:36.536Z,21.73
2019-03-30T15:53:06.824Z,25.63
2019-03-30T15:55:37.245Z,26.13
2019-03-30T15:58:07.701Z,27.33
2019-03-30T16:00:37.977Z,27.73
2019-03-30T16:03:08.383Z,39.40
2019-03-30T16:05:38.665Z,38.20
2019-03-30T16:08:08.939Z,32.20
2019-03-30T16:10:39.260Z,31.90
2019-03-30T16:13:09.870Z,31.20
2019-03-30T16:15:40.191Z,28.70
2019-03-30T16:18:10.504Z,33.20
2019-03-30T16:20:40.769Z,33.37
2019-03-30T16:23:11.027Z,35.33
2019-03-30T16:25:41.359Z,34.33
2019-03-30T16:28:11.628Z,34.70
2019-03-30T16:30:41.928Z,34.83
2019-03-30T16:33:12.227Z,34.30
2019-03-30T16:35:42.503Z,34.53
2019-03-30T16:38:12.740Z,34.77
2019-03-30T16:40:43.116Z,35.27
2019-03-30T16:43:13.386Z,37.33
2019-03-30T16:45:43.595Z,37.53
2019-03-30T16:48:14.828Z,38.50
2019-03-30T16:50:45.248Z,38.90
2019-03-30T16:53:15.499Z,36.97
2019-03-30T16:55:45.776Z,41.93
2019-03-30T16:58:15.991Z,37.57
2019-03-30T17:00:56.312Z,39.10
2019-03-30T17:03:18.207Z,40.73
2019-03-30T17:05:48.457Z,41.73
2019-03-30T17:08:18.690Z,40.67
2019-03-30T17:10:49.129Z,40.00
2019-03-30T17:13:19.717Z,41.63
2019-03-30T17:15:50.495Z,40.83
2019-03-30T17:18:20.863Z,47.80
2019-03-30T17:20:51.125Z,50.43
2019-03-30T17:23:21.552Z,48.20
2019-03-30T17:25:51.852Z,42.77
2019-03-30T17:28:22.301Z,42.87
2019-03-30T17:30:53.850Z,42.53
2019-03-30T17:33:24.700Z,48.00
2019-03-30T17:35:54.945Z,53.17
2019-03-30T17:38:26.326Z,43.73
2019-03-30T17:40:56.580Z,46.33
2019-03-30T17:43:27.364Z,51.57
2019-03-30T17:45:57.885Z,54.77
2019-03-30T17:48:30.646Z,52.90
2019-03-30T17:51:01.051Z,49.70
2019-03-30T17:53:31.563Z,52.17
2019-03-30T17:56:02.182Z,56.10
2019-03-30T17:58:32.981Z,70.53
2019-03-30T18:01:03.702Z,97.77
2019-03-30T18:03:33.983Z,72.07
2019-03-30T18:06:04.389Z,71.00
2019-03-30T18:08:34.615Z,74.67
2019-03-30T18:11:05.639Z,98.63
2019-03-30T18:13:37.264Z,144.00
2019-03-30T18:16:10.310Z,123.90
2019-03-30T18:18:40.608Z,113.13
2019-03-30T18:21:10.969Z,132.57
2019-03-30T18:23:42.015Z,134.00
2019-03-30T18:26:12.336Z,120.57
2019-03-30T18:28:42.752Z,105.40
2019-03-30T18:31:13.118Z,117.57
2019-03-30T18:33:44.879Z,139.63
2019-03-30T18:36:17.950Z,149.23
2019-03-30T18:38:50.375Z,143.87
2019-03-30T18:41:21.142Z,111.10
2019-03-30T18:43:51.733Z,99.17
2019-03-30T18:46:22.031Z,90.77
2019-03-30T18:48:52.387Z,92.50
2019-03-30T18:51:24.085Z,125.60
2019-03-30T18:53:56.630Z,144.53
2019-03-30T18:56:28.005Z,147.57
2019-03-30T18:58:58.435Z,137.40
2019-03-30T19:01:30.074Z,102.33
2019-03-30T19:04:00.543Z,109.37
2019-03-30T19:06:31.232Z,102.43
2019-03-30T19:09:04.129Z,107.23
2019-03-30T19:11:34.363Z,96.53
2019-03-30T19:14:04.993Z,121.10
2019-03-30T19:16:35.501Z,175.23
2019-03-30T19:19:05.801Z,216.33
2019-03-30T19:21:36.690Z,169.63
2019-03-30T19:24:06.956Z,153.33
2019-03-30T19:26:37.427Z,143.27
2019-03-30T19:29:07.897Z,122.73
2019-03-30T19:31:38.205Z,111.70
2019-03-30T19:34:08.541Z,114.70
2019-03-30T19:36:39.199Z,116.83
2019-03-30T19:39:10.927Z,155.03
2019-03-30T19:41:41.485Z,154.57
2019-03-30T19:44:13.138Z,137.73
2019-03-30T19:46:43.710Z,123.50
2019-03-30T19:49:14.073Z,125.03
2019-03-30T19:51:44.323Z,131.33
2019-03-30T19:54:14.871Z,178.97
2019-03-30T19:56:45.361Z,182.00
2019-03-30T19:59:15.752Z,152.60
2019-03-30T20:01:47.711Z,113.83
2019-03-30T20:04:17.943Z,119.23
2019-03-30T20:06:48.463Z,132.87
2019-03-30T20:09:20.791Z,141.30
2019-03-30T20:11:51.115Z,138.77
2019-03-30T20:14:21.508Z,142.57
2019-03-30T20:16:52.524Z,139.03
2019-03-30T20:19:22.807Z,147.20
2019-03-30T20:21:53.136Z,135.67
2019-03-30T20:24:23.625Z,131.00
2019-03-30T20:26:53.915Z,143.13
2019-03-30T20:29:25.516Z,144.27
2019-03-30T20:31:56.107Z,155.63
2019-03-30T20:34:27.502Z,153.17
2019-03-30T20:36:57.981Z,139.37
2019-03-30T20:39:28.196Z,146.90
2019-03-30T20:41:58.502Z,146.47
2019-03-30T20:44:28.781Z,144.67
2019-03-30T20:46:59.089Z,152.07
2019-03-30T20:49:29.369Z,141.13
2019-03-30T20:52:01.844Z,154.70
2019-03-30T20:54:31.660Z,173.97
2019-03-30T20:57:01.928Z,160.40
2019-03-30T20:59:39.994Z,155.17
2019-03-30T21:02:09.352Z,144.07
2019-03-30T21:04:40.297Z,139.67
2019-03-30T21:07:10.543Z,138.00
2019-03-30T21:09:40.947Z,155.87
2019-03-30T21:12:11.222Z,181.43
2019-03-30T21:14:41.478Z,174.50
2019-03-30T21:17:11.734Z,175.13
2019-03-30T21:19:42.131Z,178.83
2019-03-30T21:22:19.776Z,174.80
2019-03-30T21:24:50.137Z,158.53
2019-03-30T21:27:22.220Z,162.57
2019-03-30T21:29:54.829Z,161.43
2019-03-30T21:32:27.867Z,159.53
2019-03-30T21:34:58.487Z,152.67
2019-03-30T21:37:28.722Z,148.90
2019-03-30T21:39:59.630Z,150.07
2019-03-30T21:42:29.873Z,152.03
2019-03-30T21:45:00.497Z,156.27
2019-03-30T21:47:30.950Z,150.13
2019-03-30T21:50:02.060Z,153.90
2019-03-30T21:52:32.272Z,146.13
2019-03-30T21:55:03.053Z,148.73
2019-03-30T21:57:33.292Z,151.70
2019-03-30T22:00:10.417Z,144.37
2019-03-30T22:02:35.465Z,145.87
2019-03-30T22:05:06.267Z,143.77
2019-03-30T22:07:37.756Z,147.60
2019-03-30T22:10:10.001Z,144.93
2019-03-30T22:12:42.606Z,150.93
2019-03-30T22:15:14.424Z,148.80
2019-03-30T22:17:44.659Z,156.93
2019-03-30T22:20:14.891Z,141.00
2019-03-30T22:22:46.160Z,147.13
2019-03-30T22:25:16.375Z,151.87
2019-03-30T22:27:46.613Z,153.00
2019-03-30T22:30:24.668Z,155.57
2019-03-30T22:32:48.957Z,158.60
2019-03-30T22:35:19.230Z,167.73
2019-03-30T22:37:49.501Z,160.70
2019-03-30T22:40:19.765Z,164.50
2019-03-30T22:42:49.979Z,171.53
2019-03-30T22:45:20.247Z,171.57
2019-03-30T22:47:50.510Z,175.20
2019-03-30T22:50:20.792Z,170.80
2019-03-30T22:52:51.043Z,178.53
2019-03-30T22:55:21.333Z,176.37
2019-03-30T22:57:51.663Z,169.27
2019-03-30T23:00:39.635Z,173.27
2019-03-30T23:03:10.028Z,173.20
2019-03-30T23:05:40.239Z,170.93
2019-03-30T23:08:10.583Z,175.83
2019-03-30T23:10:40.797Z,173.23
2019-03-30T23:13:11.019Z,172.80
2019-03-30T23:15:41.287Z,174.80
2019-03-30T23:18:11.503Z,178.00
2019-03-30T23:20:41.764Z,173.73
2019-03-30T23:23:12.003Z,168.20
2019-03-30T23:25:42.233Z,167.87
2019-03-30T23:28:12.479Z,162.30
2019-03-30T23:30:53.431Z,159.23
2019-03-30T23:33:14.589Z,173.83
2019-03-30T23:35:44.823Z,169.10
2019-03-30T23:38:15.091Z,169.03
2019-03-30T23:40:45.311Z,162.07
2019-03-30T23:43:15.584Z,166.40
2019-03-30T23:45:45.792Z,157.13
2019-03-30T23:48:16.031Z,168.30
2019-03-30T23:50:46.288Z,174.17
2019-03-30T23:53:16.525Z,164.90
2019-03-30T23:55:46.739Z,179.17
2019-03-30T23:58:16.987Z,174.97
